Pagina principale
METAR-TAF:

METAR-TAF

Aeroporti :

Cazaux, Francia

latitudine: 44-32N, longitudine: 001-08W, altezza: 25 m

Osservazione

Il bollettino è stato emesso 12 minuti fa, alle 20:00 UTC
Vento 3 kt da sud
Temperature 12°C
Umidità 82%
Pressione 1019 hPa
Visibilità 10 km o più

METAR: LFBC 162000Z AUTO 17003KT 9999 // NSC 12/09 Q1019

Ora: 21:12 (20:12 UTC)

Previsione

Il bollettino è stato emesso 12 minuti fa, alle 20:00 UTC
Previsione valida dal 15 alle 21 UTC al 16 alle 21 UTC
Vento 3 kt da sud
Visibilità 10 km o più
nessuna nube inferiore a 1500 m e nessun cumulonembo
Evoluzione graduale
dal 16 alle 10 UTC al 16 alle 12 UTC
Vento 15 kt da sud/sud-ovest con raffiche fino a 25 kt
Evoluzione graduale
dal 16 alle 14 UTC al 16 alle 16 UTC
Vento 10 kt da sud-ovest

TAF: LFBC 152000Z 1521/1621 17003KT CAVOK BECMG 1610/1612 21015G25KT BECMG 1614/1616 23010KT

Osservazioni e previsioni meteorologiche di più di 4000 aeroporti (messaggi METAR e TAF).

Le stazioni disponibili sono rappresentate dai dischi gialli e rossi sulla carta.

Puntare il mouse per vedere il nome della stazione.

Clicca sopra per visualizzare le osservazioni e previsioni meteorologiche.

Per cambiare la mappa : fare clic sui pulsanti verdi con una croce nera per ingrandire, il pulsante verde con un trattino per diminuire, o sulla freccia verde per le mappe adiacenti.


METAR-TAF: